Time;durP1;ratioP1;P1;durP2;ratioP2;P2;SDS_P1;SDS_P2;PMS_P1;PMS_P2;Temp;Humidity;BMP_temperature;BMP_pressure;BME280_temperature;BME280_humidity;BME280_pressure;Samples;Min_cycle;Max_cycle;Signal;HPM_P1;HPM_P2
2021/10/11 00:01:25;;;;;;;26.63;13.82;;;;;;;1.51;100.00;97517.88;4987095;28;20057;-61
2021/10/11 00:03:51;;;;;;;26.48;13.63;;;;;;;1.46;100.00;97507.16;4999437;28;20042;-61
2021/10/11 00:06:16;;;;;;;27.15;14.43;;;;;;;1.45;100.00;97510.13;4992436;28;20380;-61
2021/10/11 00:08:41;;;;;;;28.13;14.32;;;;;;;1.43;100.00;97513.13;4996246;28;20049;-61
2021/10/11 00:11:07;;;;;;;33.50;15.82;;;;;;;1.53;100.00;97514.88;4992841;28;20133;-58
2021/10/11 00:13:32;;;;;;;26.65;14.32;;;;;;;1.50;100.00;97518.19;5001420;28;20095;-63
2021/10/11 00:15:57;;;;;;;27.67;13.88;;;;;;;1.49;100.00;97514.66;5006522;28;20046;-62
2021/10/11 00:18:23;;;;;;;29.50;14.65;;;;;;;1.49;100.00;97522.75;5001757;28;20051;-63
2021/10/11 00:20:48;;;;;;;25.38;13.40;;;;;;;1.37;100.00;97518.84;5001736;28;20066;-64
2021/10/11 00:23:15;;;;;;;25.00;13.18;;;;;;;1.28;100.00;97510.59;4995151;28;20079;-62
2021/10/11 00:25:40;;;;;;;27.48;14.95;;;;;;;1.02;100.00;97518.91;5001875;28;20053;-61
2021/10/11 00:28:07;;;;;;;30.13;15.55;;;;;;;0.82;100.00;97517.22;4990761;28;20030;-63
2021/10/11 00:30:33;;;;;;;29.13;14.75;;;;;;;0.87;100.00;97519.88;4998272;28;20064;-63
2021/10/11 00:32:58;;;;;;;31.15;15.05;;;;;;;1.00;100.00;97528.41;4999632;28;20490;-63
2021/10/11 00:35:23;;;;;;;29.27;15.13;;;;;;;1.17;100.00;97527.97;4993937;28;20076;-63
2021/10/11 00:37:49;;;;;;;27.77;13.50;;;;;;;1.29;100.00;97531.06;4996882;28;20045;-62
2021/10/11 00:40:14;;;;;;;22.65;11.93;;;;;;;1.07;100.00;97539.66;4986933;28;20038;-61
2021/10/11 00:42:40;;;;;;;25.88;13.05;;;;;;;0.99;100.00;97534.88;4977594;28;20050;-62
2021/10/11 00:45:06;;;;;;;25.50;13.32;;;;;;;1.01;100.00;97536.22;4973024;28;20046;-62
2021/10/11 00:47:32;;;;;;;27.67;14.02;;;;;;;1.12;100.00;97539.63;4977082;28;20046;-62
2021/10/11 00:49:57;;;;;;;26.60;13.13;;;;;;;1.12;100.00;97539.63;4974134;28;20042;-62
2021/10/11 00:52:23;;;;;;;26.88;13.43;;;;;;;1.04;100.00;97529.44;4971864;28;20069;-62
2021/10/11 00:54:49;;;;;;;24.55;13.18;;;;;;;0.64;100.00;97534.09;4994250;28;20049;-63
2021/10/11 00:57:14;;;;;;;25.45;13.60;;;;;;;0.66;100.00;97529.22;4992810;28;20041;-61
2021/10/11 00:59:41;;;;;;;23.45;13.05;;;;;;;0.72;100.00;97533.47;5000462;28;20394;-62
2021/10/11 01:02:07;;;;;;;26.75;14.25;;;;;;;0.81;100.00;97528.28;4994057;28;20046;-62
2021/10/11 01:04:32;;;;;;;28.00;14.75;;;;;;;0.97;100.00;97535.16;5000303;28;20069;-62
2021/10/11 01:07:01;;;;;;;28.13;15.15;;;;;;;0.99;100.00;97537.56;4995936;28;20081;-62
2021/10/11 01:09:27;;;;;;;28.55;13.68;;;;;;;1.04;100.00;97534.81;4972775;28;20502;-61
2021/10/11 01:11:53;;;;;;;26.63;14.80;;;;;;;1.07;100.00;97523.47;4997355;28;20057;-61
2021/10/11 01:14:19;;;;;;;29.67;14.90;;;;;;;1.08;100.00;97525.91;4991752;28;20042;-62
2021/10/11 01:16:46;;;;;;;28.50;14.88;;;;;;;1.20;100.00;97525.50;4999245;28;20053;-62
2021/10/11 01:19:11;;;;;;;24.90;13.30;;;;;;;1.12;100.00;97521.53;4992219;28;20041;-63
2021/10/11 01:21:37;;;;;;;24.23;14.52;;;;;;;1.26;100.00;97518.16;4998454;28;20060;-63
2021/10/11 01:24:04;;;;;;;27.10;15.13;;;;;;;1.41;100.00;97523.41;5001171;28;20085;-61
2021/10/11 01:26:40;;;;;;;26.17;14.45;;;;;;;1.54;100.00;97519.19;4994229;28;20052;-63
2021/10/11 01:29:07;;;;;;;31.95;15.35;;;;;;;1.64;100.00;97512.88;5001087;28;20051;-62
2021/10/11 01:31:33;;;;;;;25.67;14.38;;;;;;;1.73;100.00;97513.84;4979854;28;20063;-62
2021/10/11 01:33:59;;;;;;;26.35;13.30;;;;;;;1.83;100.00;97518.31;4990183;28;20487;-63
2021/10/11 01:36:25;;;;;;;27.38;14.15;;;;;;;1.94;100.00;97524.38;4995913;28;20054;-63
2021/10/11 01:38:55;;;;;;;24.67;13.68;;;;;;;2.01;100.00;97514.81;5005800;28;20042;-63
2021/10/11 01:41:20;;;;;;;;;;;;;;;2.07;100.00;97512.84;4996857;28;20038;-63
2021/10/11 01:43:47;;;;;;;22.42;12.38;;;;;;;2.16;100.00;97513.84;5002696;28;19968;-62
2021/10/11 01:46:12;;;;;;;24.30;13.05;;;;;;;2.25;100.00;97514.78;4992505;28;20133;-62
2021/10/11 01:48:38;;;;;;;24.40;13.80;;;;;;;2.22;100.00;97511.88;4995364;28;20137;-62
2021/10/11 01:51:03;;;;;;;26.38;13.23;;;;;;;2.27;100.00;97514.50;5001438;28;20038;-61
2021/10/11 01:53:29;;;;;;;23.55;12.80;;;;;;;2.26;100.00;97516.38;5000779;28;20046;-61
2021/10/11 01:55:54;;;;;;;26.98;13.18;;;;;;;2.31;100.00;97510.09;4999573;28;20065;-62
2021/10/11 01:58:20;;;;;;;27.77;14.35;;;;;;;2.39;100.00;97511.34;4997286;28;20042;-63
2021/10/11 02:00:45;;;;;;;24.83;12.52;;;;;;;2.53;100.00;97514.09;5001178;28;20046;-63
2021/10/11 02:03:10;;;;;;;24.55;12.73;;;;;;;2.48;100.00;97510.41;5003407;28;20103;-63
2021/10/11 02:05:36;;;;;;;24.38;13.68;;;;;;;2.43;100.00;97499.66;5012845;28;20132;-62
2021/10/11 02:08:03;;;;;;;28.75;14.63;;;;;;;2.57;100.00;97496.97;5021778;28;20045;-62
2021/10/11 02:10:30;;;;;;;26.45;14.48;;;;;;;2.51;100.00;97502.78;5017490;28;20045;-62
2021/10/11 02:12:59;;;;;;;26.75;14.30;;;;;;;2.56;100.00;97497.31;5022122;28;20041;-63
2021/10/11 02:15:25;;;;;;;26.35;13.63;;;;;;;2.56;100.00;97494.59;5013370;28;20088;-62
2021/10/11 02:17:51;;;;;;;23.55;13.43;;;;;;;2.51;100.00;97491.97;5005896;28;20061;-63
2021/10/11 02:20:17;;;;;;;28.42;13.90;;;;;;;2.46;100.00;97503.66;4998253;28;20131;-63
2021/10/11 02:22:42;;;;;;;25.25;13.95;;;;;;;2.38;100.00;97496.22;4999479;28;20049;-63
2021/10/11 02:25:08;;;;;;;27.55;14.02;;;;;;;2.22;100.00;97493.72;4995876;28;20034;-62
2021/10/11 02:27:34;;;;;;;27.98;14.40;;;;;;;1.99;100.00;97486.50;5002341;28;20474;-62
2021/10/11 02:30:00;;;;;;;28.27;15.50;;;;;;;1.52;100.00;97497.09;5002110;28;20034;-63
2021/10/11 02:32:26;;;;;;;26.77;14.23;;;;;;;1.21;100.00;97492.03;5002852;28;20061;-62
2021/10/11 02:34:51;;;;;;;32.70;16.50;;;;;;;1.07;100.00;97496.50;5015451;28;20038;-62
2021/10/11 02:37:17;;;;;;;32.00;15.55;;;;;;;1.02;100.00;97504.63;5015694;28;20052;-60
2021/10/11 02:39:42;;;;;;;34.42;16.90;;;;;;;0.93;100.00;97513.34;5010335;28;20085;-63
2021/10/11 02:42:08;;;;;;;31.15;15.90;;;;;;;1.00;100.00;97523.00;4999705;28;20042;-62
2021/10/11 02:44:33;;;;;;;29.58;15.57;;;;;;;1.19;100.00;97518.50;5008576;28;20046;-63
2021/10/11 02:46:59;;;;;;;31.05;16.63;;;;;;;1.35;100.00;97519.13;5017004;28;20045;-61
2021/10/11 02:49:25;;;;;;;29.42;15.57;;;;;;;1.43;100.00;97523.91;4996449;28;20060;-62
2021/10/11 02:51:50;;;;;;;32.95;15.80;;;;;;;1.50;100.00;97521.66;5021261;28;20069;-63
2021/10/11 02:54:17;;;;;;;40.42;15.77;;;;;;;1.48;100.00;97521.16;5015732;28;20112;-60
2021/10/11 02:56:46;;;;;;;28.27;14.63;;;;;;;1.46;100.00;97520.66;5019847;28;20434;-62
2021/10/11 02:59:11;;;;;;;32.10;16.03;;;;;;;1.41;100.00;97523.41;5004480;28;20046;-62
2021/10/11 03:01:37;;;;;;;33.58;15.70;;;;;;;1.41;100.00;97525.31;5001010;28;20057;-63
2021/10/11 03:04:02;;;;;;;28.98;15.25;;;;;;;1.27;100.00;97527.88;4999708;28;20064;-61
2021/10/11 03:06:28;;;;;;;29.95;15.73;;;;;;;1.14;100.00;97526.66;4996493;28;20056;-62
2021/10/11 03:08:54;;;;;;;25.92;14.48;;;;;;;0.98;100.00;97519.78;4999625;28;20038;-62
2021/10/11 03:11:19;;;;;;;27.08;14.85;;;;;;;0.68;100.00;97521.66;4998543;28;20406;-62
2021/10/11 03:13:44;;;;;;;30.20;16.00;;;;;;;0.44;100.00;97521.56;4998245;28;20087;-61
2021/10/11 03:16:10;;;;;;;28.77;15.57;;;;;;;0.59;100.00;97524.13;4993346;28;20065;-62
2021/10/11 03:18:35;;;;;;;29.50;15.45;;;;;;;0.66;100.00;97513.84;5007038;28;20092;-62
2021/10/11 03:21:01;;;;;;;33.40;16.27;;;;;;;0.59;100.00;97509.88;4995278;28;20564;-61
2021/10/11 03:23:26;;;;;;;27.20;14.30;;;;;;;0.37;100.00;97498.44;4996325;28;20460;-62
2021/10/11 03:25:52;;;;;;;29.27;16.02;;;;;;;0.30;100.00;97502.53;4996456;28;20053;-61
2021/10/11 03:28:18;;;;;;;30.30;15.85;;;;;;;0.09;100.00;97504.53;4977677;28;20388;-62
2021/10/11 03:30:43;;;;;;;33.42;15.88;;;;;;;-0.22;100.00;97502.84;5004805;28;20052;-61
2021/10/11 03:33:09;;;;;;;37.10;17.40;;;;;;;-0.33;100.00;97503.16;5001740;28;20069;-62
2021/10/11 03:35:34;;;;;;;35.17;17.73;;;;;;;-0.33;100.00;97508.53;4996453;28;20121;-62
2021/10/11 03:38:01;;;;;;;41.17;18.73;;;;;;;-0.39;100.00;97508.56;5008292;28;20045;-62
2021/10/11 03:40:27;;;;;;;40.13;19.23;;;;;;;-0.34;100.00;97509.59;4995098;28;20698;-62
2021/10/11 03:42:53;;;;;;;34.60;18.15;;;;;;;-0.16;100.00;97503.63;4996764;28;20046;-62
2021/10/11 03:45:18;;;;;;;38.53;18.30;;;;;;;-0.11;100.00;97500.91;4993368;28;20066;-62
2021/10/11 03:47:44;;;;;;;38.28;17.70;;;;;;;-0.22;100.00;97505.53;5003183;28;20041;-63
2021/10/11 03:50:09;;;;;;;37.03;16.77;;;;;;;-0.25;100.00;97505.28;5008684;28;20052;-61
2021/10/11 03:52:35;;;;;;;37.38;18.40;;;;;;;-0.11;100.00;97508.16;5015534;28;20072;-62
2021/10/11 03:55:00;;;;;;;38.40;17.55;;;;;;;-0.15;100.00;97507.09;5000545;28;20398;-63
2021/10/11 03:57:25;;;;;;;41.95;20.08;;;;;;;-0.28;100.00;97514.69;5013424;28;20136;-63
2021/10/11 03:59:51;;;;;;;39.67;20.63;;;;;;;-0.34;100.00;97509.59;5000854;28;20128;-63
2021/10/11 04:02:17;;;;;;;39.50;19.13;;;;;;;-0.40;100.00;97509.66;4997530;28;20050;-61
2021/10/11 04:04:42;;;;;;;46.83;19.92;;;;;;;-0.45;100.00;97517.75;5011473;28;20132;-62
2021/10/11 04:07:11;;;;;;;52.28;22.08;;;;;;;-0.49;100.00;97508.59;5014786;28;20054;-63
2021/10/11 04:09:37;;;;;;;53.92;20.63;;;;;;;-0.44;100.00;97510.47;5019294;28;20444;-62
2021/10/11 04:12:09;;;;;;;43.75;20.27;;;;;;;-0.53;100.00;97507.53;5017234;28;20068;-63
2021/10/11 04:14:35;;;;;;;44.38;19.38;;;;;;;-0.42;100.00;97511.78;5000430;28;20399;-61
2021/10/11 04:17:01;;;;;;;44.80;21.23;;;;;;;-0.22;100.00;97505.53;5008837;28;20045;-60
2021/10/11 04:19:27;;;;;;;44.33;19.92;;;;;;;0.08;100.00;97513.72;4991756;28;20042;-63
2021/10/11 04:21:53;;;;;;;44.85;20.10;;;;;;;0.31;100.00;97517.63;5005082;28;20041;-62
2021/10/11 04:24:18;;;;;;;43.70;18.65;;;;;;;0.53;100.00;97523.38;4993117;28;20044;-62
2021/10/11 04:26:44;;;;;;;37.67;19.17;;;;;;;0.67;100.00;97522.75;4982227;28;20038;-61
2021/10/11 04:29:10;;;;;;;38.25;18.70;;;;;;;0.88;100.00;97524.19;4994872;28;20045;-61
2021/10/11 04:31:35;;;;;;;37.70;19.33;;;;;;;1.06;100.00;97530.78;4998041;28;20045;-61
2021/10/11 04:34:01;;;;;;;38.47;18.52;;;;;;;1.08;100.00;97541.25;4981738;28;20065;-63
2021/10/11 04:36:26;;;;;;;33.00;16.52;;;;;;;1.27;100.00;97546.75;5001806;28;20050;-63
2021/10/11 04:38:52;;;;;;;31.98;16.98;;;;;;;1.44;100.00;97541.72;5014140;28;20052;-61
2021/10/11 04:41:18;;;;;;;33.88;17.08;;;;;;;1.53;100.00;97547.28;5009640;28;20045;-62
2021/10/11 04:43:43;;;;;;;30.75;15.40;;;;;;;1.66;100.00;97552.00;5018300;28;20520;-63
2021/10/11 04:46:09;;;;;;;34.33;15.07;;;;;;;1.81;100.00;97552.91;5014527;28;20046;-62
2021/10/11 04:48:34;;;;;;;31.90;15.48;;;;;;;1.79;100.00;97552.41;5017126;28;20037;-61
2021/10/11 04:51:00;;;;;;;29.85;16.42;;;;;;;1.87;100.00;97554.47;5007809;28;20041;-63
2021/10/11 04:53:25;;;;;;;28.65;15.70;;;;;;;1.91;100.00;97550.91;5015558;28;20113;-63
2021/10/11 04:55:51;;;;;;;29.40;14.63;;;;;;;1.88;100.00;97547.97;5027273;28;20056;-63
2021/10/11 04:58:16;;;;;;;32.35;15.48;;;;;;;2.04;100.00;97543.97;5024558;28;20041;-63
2021/10/11 05:00:42;;;;;;;30.23;14.85;;;;;;;1.70;100.00;97536.03;5014399;28;20129;-63
2021/10/11 05:03:07;;;;;;;32.15;15.43;;;;;;;1.59;100.00;97538.03;5001477;28;20034;-63
2021/10/11 05:05:33;;;;;;;29.88;15.82;;;;;;;1.45;100.00;97535.22;4996097;28;20125;-60
2021/10/11 05:07:59;;;;;;;32.67;16.17;;;;;;;1.39;100.00;97541.78;5001465;28;20049;-63
2021/10/11 05:10:25;;;;;;;27.92;15.02;;;;;;;1.61;100.00;97552.06;4994862;28;20454;-64
2021/10/11 05:12:50;;;;;;;32.13;16.15;;;;;;;1.90;100.00;97556.59;4997938;28;20046;-63
2021/10/11 05:15:16;;;;;;;29.80;15.52;;;;;;;2.16;100.00;97559.78;4988653;28;20134;-62
2021/10/11 05:17:42;;;;;;;27.02;14.55;;;;;;;2.26;100.00;97556.13;5004031;28;20053;-62
2021/10/11 05:20:08;;;;;;;29.92;16.10;;;;;;;1.90;100.00;97556.59;5003378;28;20046;-62
2021/10/11 05:22:37;;;;;;;32.58;16.40;;;;;;;1.53;100.00;97556.19;5010908;28;20552;-62
2021/10/11 05:25:04;;;;;;;30.88;16.02;;;;;;;1.66;100.00;97546.59;4966766;28;20072;-62
2021/10/11 05:27:31;;;;;;;33.20;17.13;;;;;;;1.53;100.00;97544.56;5002807;28;20068;-63
2021/10/11 05:29:57;;;;;;;36.22;18.83;;;;;;;1.38;100.00;97542.84;5008345;28;20041;-63
2021/10/11 05:32:23;;;;;;;36.47;18.10;;;;;;;1.68;100.00;97543.63;4994260;28;20265;-63
2021/10/11 05:34:48;;;;;;;31.15;16.20;;;;;;;1.92;100.00;97533.59;5003551;28;20076;-61
2021/10/11 05:37:14;;;;;;;35.05;18.02;;;;;;;1.36;100.00;97542.34;4978521;28;20483;-62
2021/10/11 05:39:40;;;;;;;35.38;19.48;;;;;;;1.39;100.00;97535.56;4965954;28;20056;-62
2021/10/11 05:42:08;;;;;;;40.05;19.92;;;;;;;1.61;100.00;97529.66;4996866;28;20046;-61
2021/10/11 05:44:35;;;;;;;32.60;17.35;;;;;;;1.92;100.00;97532.78;5001064;28;20141;-62
2021/10/11 05:47:02;;;;;;;37.17;18.88;;;;;;;2.12;100.00;97547.94;5003484;28;20045;-63
2021/10/11 05:49:29;;;;;;;38.58;18.48;;;;;;;1.90;100.00;97529.56;4966635;28;20049;-61
2021/10/11 05:51:54;;;;;;;33.97;17.58;;;;;;;2.11;100.00;97538.22;5002708;28;20042;-63
2021/10/11 05:54:20;;;;;;;35.78;17.42;;;;;;;2.39;100.00;97522.94;4977064;28;20525;-62
2021/10/11 05:56:45;;;;;;;36.47;16.80;;;;;;;2.61;100.00;97521.53;4999205;28;20058;-62
2021/10/11 05:59:11;;;;;;;37.58;18.70;;;;;;;2.81;100.00;97523.09;4995763;28;20128;-63
2021/10/11 06:01:37;;;;;;;38.70;17.77;;;;;;;2.64;100.00;97523.66;4983706;28;20477;-63
2021/10/11 06:04:03;;;;;;;40.88;18.90;;;;;;;2.52;100.00;97520.59;5005860;28;20058;-62
2021/10/11 06:06:29;;;;;;;41.38;19.27;;;;;;;2.17;100.00;97525.44;5000787;28;20045;-63
2021/10/11 06:08:55;;;;;;;44.75;20.50;;;;;;;1.95;100.00;97521.41;5001939;28;20034;-62
2021/10/11 06:11:20;;;;;;;44.63;21.77;;;;;;;1.88;100.00;97515.56;4994900;28;20036;-61
2021/10/11 06:13:47;;;;;;;45.85;22.05;;;;;;;1.85;100.00;97514.22;4999198;28;20042;-62
2021/10/11 06:16:13;;;;;;;45.45;21.95;;;;;;;1.92;100.00;97522.78;4992411;28;20096;-62
2021/10/11 06:18:39;;;;;;;50.05;23.30;;;;;;;2.07;100.00;97518.25;4969964;28;20041;-62
2021/10/11 06:21:05;;;;;;;48.47;22.67;;;;;;;2.25;100.00;97527.47;4996687;28;20096;-61
2021/10/11 06:23:30;;;;;;;50.13;23.00;;;;;;;2.42;100.00;97526.97;5008142;28;20045;-61
2021/10/11 06:25:56;;;;;;;48.08;22.50;;;;;;;2.61;100.00;97521.53;4994519;28;20041;-62
2021/10/11 06:28:21;;;;;;;45.85;21.27;;;;;;;2.72;100.00;97527.59;4996557;28;20042;-61
2021/10/11 06:30:47;;;;;;;49.65;21.85;;;;;;;2.79;100.00;97519.91;5002262;28;20056;-62
2021/10/11 06:33:13;;;;;;;45.30;21.02;;;;;;;2.91;100.00;97511.31;4995059;28;20054;-60
2021/10/11 06:35:39;;;;;;;46.55;21.98;;;;;;;3.12;100.00;97504.47;5001391;28;20338;-61
2021/10/11 06:38:04;;;;;;;38.92;21.00;;;;;;;3.25;100.00;97500.97;4999791;28;20049;-61
2021/10/11 06:40:31;;;;;;;44.42;20.35;;;;;;;3.15;100.00;97494.94;5001053;28;20099;-61
2021/10/11 06:42:56;;;;;;;44.53;20.20;;;;;;;3.21;100.00;97496.47;4986867;28;20081;-61
2021/10/11 06:45:22;;;;;;;47.13;22.77;;;;;;;3.27;100.00;97492.53;4997443;28;20089;-62
2021/10/11 06:47:47;;;;;;;44.92;21.88;;;;;;;3.48;100.00;97492.16;5008517;28;20450;-62
2021/10/11 06:50:13;;;;;;;43.50;22.25;;;;;;;3.74;100.00;97501.38;4995202;28;20042;-63
2021/10/11 06:52:39;;;;;;;42.88;20.52;;;;;;;3.83;100.00;97496.88;5001515;28;20493;-61
2021/10/11 06:55:05;;;;;;;48.22;21.88;;;;;;;3.98;100.00;97500.34;4997485;28;20081;-61
2021/10/11 06:57:30;;;;;;;41.70;17.65;;;;;;;4.06;100.00;97505.06;5010808;28;20044;-63
2021/10/11 06:59:56;;;;;;;33.38;17.42;;;;;;;4.13;100.00;97512.78;5003711;28;20135;-63
2021/10/11 07:02:21;;;;;;;34.92;19.00;;;;;;;4.37;100.00;97513.28;4998229;28;20718;-63
2021/10/11 07:04:47;;;;;;;34.03;18.00;;;;;;;4.65;100.00;97521.34;5015081;28;20042;-63
2021/10/11 07:07:12;;;;;;;34.60;17.95;;;;;;;4.90;100.00;97516.44;5014099;28;20075;-63
2021/10/11 07:09:38;;;;;;;29.27;15.38;;;;;;;5.29;100.00;97531.19;4999938;28;20073;-63
2021/10/11 07:12:04;;;;;;;25.70;14.27;;;;;;;5.71;100.00;97532.50;5005159;28;20125;-61
2021/10/11 07:14:29;;;;;;;26.48;13.73;;;;;;;5.95;100.00;97528.56;5020654;28;20457;-63
2021/10/11 07:16:55;;;;;;;27.52;13.10;;;;;;;6.10;100.00;97530.88;5001777;28;20042;-63
2021/10/11 07:19:20;;;;;;;23.35;12.85;;;;;;;6.22;100.00;97538.41;5001248;28;20112;-63
2021/10/11 07:21:46;;;;;;;21.23;12.57;;;;;;;6.40;100.00;97547.41;5006693;28;20100;-63
2021/10/11 07:24:14;;;;;;;24.80;13.10;;;;;;;6.48;100.00;97559.41;4995796;28;20141;-63
2021/10/11 07:26:40;;;;;;;21.92;12.88;;;;;;;6.64;98.27;97554.31;5004335;28;20079;-63
2021/10/11 07:29:06;;;;;;;22.60;13.18;;;;;;;5.97;100.00;97561.72;5001839;28;20053;-63
2021/10/11 07:31:32;;;;;;;21.00;11.48;;;;;;;5.99;100.00;97567.63;4990254;28;20503;-62
2021/10/11 07:33:57;;;;;;;20.27;11.68;;;;;;;5.93;100.00;97572.38;4994303;28;20376;-65
2021/10/11 07:36:23;;;;;;;24.95;11.98;;;;;;;5.98;100.00;97567.94;4995629;28;20109;-64
2021/10/11 07:38:48;;;;;;;23.35;12.38;;;;;;;6.26;100.00;97563.84;4998981;28;20046;-65
2021/10/11 07:41:14;;;;;;;20.67;12.25;;;;;;;6.74;100.00;97574.97;4975077;28;20069;-65
2021/10/11 07:43:39;;;;;;;23.60;13.13;;;;;;;6.91;99.17;97574.97;4999915;28;20045;-63
2021/10/11 07:46:05;;;;;;;24.40;14.50;;;;;;;6.92;98.77;97573.06;4995434;28;20461;-61
2021/10/11 07:48:32;;;;;;;29.75;15.45;;;;;;;6.92;98.85;97573.84;5004453;28;20046;-63
2021/10/11 07:50:58;;;;;;;28.83;15.90;;;;;;;6.98;98.70;97560.88;5000466;28;20076;-62
2021/10/11 07:53:24;;;;;;;25.17;14.15;;;;;;;7.10;97.06;97557.50;4993943;28;20593;-64
2021/10/11 07:55:49;;;;;;;31.67;15.63;;;;;;;7.38;96.39;97556.00;5007670;28;20053;-64
2021/10/11 07:58:15;;;;;;;26.10;14.40;;;;;;;7.67;95.10;97549.03;4989477;28;20104;-63
2021/10/11 08:00:40;;;;;;;29.25;15.38;;;;;;;8.15;93.50;97539.63;4995411;28;20210;-64
2021/10/11 08:03:07;;;;;;;27.02;13.30;;;;;;;8.55;91.60;97541.97;5001266;28;20034;-63
2021/10/11 08:05:32;;;;;;;25.92;15.02;;;;;;;9.12;87.67;97545.97;4990508;28;20056;-64
2021/10/11 08:07:58;;;;;;;24.67;15.35;;;;;;;10.12;85.24;97556.75;5008104;28;20038;-64
2021/10/11 08:10:23;;;;;;;22.80;13.27;;;;;;;11.03;79.13;97554.78;4993285;28;20528;-64
2021/10/11 08:12:49;;;;;;;26.25;12.68;;;;;;;11.90;74.68;97546.88;4981773;28;20449;-63
2021/10/11 08:15:16;;;;;;;23.40;12.50;;;;;;;12.91;71.09;97544.44;4993433;28;20049;-64
2021/10/11 08:17:42;;;;;;;19.98;11.63;;;;;;;12.80;71.06;97545.06;5007912;28;20042;-64
2021/10/11 08:20:08;;;;;;;19.27;11.43;;;;;;;14.01;63.41;97552.41;4992092;28;20510;-64
2021/10/11 08:22:33;;;;;;;18.05;9.93;;;;;;;14.82;59.93;97556.78;4999335;28;20089;-64
2021/10/11 08:24:59;;;;;;;16.35;9.82;;;;;;;14.81;55.83;97547.72;5006147;28;20072;-64
2021/10/11 08:27:25;;;;;;;15.75;9.85;;;;;;;14.18;57.53;97551.91;4989766;28;20109;-63
2021/10/11 08:29:51;;;;;;;18.65;10.18;;;;;;;13.41;59.52;97550.19;4973867;28;20056;-64
2021/10/11 08:32:22;;;;;;;17.33;9.93;;;;;;;12.79;61.46;97550.91;4978775;28;20061;-62
2021/10/11 08:34:48;;;;;;;19.92;10.90;;;;;;;12.84;62.53;97556.13;4988107;28;20038;-64
2021/10/11 08:37:14;;;;;;;18.15;10.15;;;;;;;13.59;59.86;97554.06;4982479;28;20068;-62
2021/10/11 08:39:41;;;;;;;19.50;9.57;;;;;;;14.53;57.01;97561.88;4996457;28;20486;-64
2021/10/11 08:42:07;;;;;;;18.70;10.10;;;;;;;15.67;52.15;97558.97;4997368;28;20046;-62
2021/10/11 08:44:32;;;;;;;14.60;9.05;;;;;;;16.28;50.45;97554.00;4930706;28;20049;-66
2021/10/11 08:46:59;;;;;;;17.38;9.05;;;;;;;13.94;54.82;97547.59;4961362;28;20093;-63
2021/10/11 08:49:25;;;;;;;14.35;8.80;;;;;;;15.79;51.69;97544.91;4988127;28;20050;-66
2021/10/11 08:51:50;;;;;;;16.85;8.82;;;;;;;15.97;51.34;97547.84;4997866;28;20081;-65
2021/10/11 08:54:16;;;;;;;14.82;8.68;;;;;;;16.11;49.99;97549.13;4988211;28;20519;-66
2021/10/11 08:56:41;;;;;;;17.50;9.82;;;;;;;16.18;49.75;97544.44;4993294;28;20373;-63
2021/10/11 08:59:07;;;;;;;16.70;9.55;;;;;;;16.74;49.35;97547.97;4983129;28;20054;-64
2021/10/11 09:01:34;;;;;;;18.20;8.93;;;;;;;17.16;47.93;97543.84;4992200;28;20056;-63
2021/10/11 09:04:18;;;;;;;16.27;9.85;;;;;;;16.43;47.13;97544.63;4990303;28;20049;-65
2021/10/11 09:07:04;;;;;;;13.40;8.30;;;;;;;16.82;46.14;97548.81;4992310;28;20089;-62
2021/10/11 09:09:33;;;;;;;15.50;8.63;;;;;;;18.01;45.72;97538.91;4991290;28;20049;-63
2021/10/11 09:11:59;;;;;;;14.82;8.90;;;;;;;17.40;46.40;97538.78;4989226;28;20525;-63
2021/10/11 09:14:25;;;;;;;18.92;11.45;;;;;;;17.00;48.41;97540.63;4987548;28;20055;-62
2021/10/11 09:17:02;;;;;;;18.00;10.00;;;;;;;16.58;47.52;97536.41;4992271;28;20446;-63
2021/10/11 09:19:36;;;;;;;18.38;10.75;;;;;;;15.93;49.68;97544.22;4983327;28;20049;-63
2021/10/11 09:22:04;;;;;;;17.23;10.10;;;;;;;15.57;52.58;97554.13;4970364;28;20050;-63
2021/10/11 09:24:30;;;;;;;19.85;11.38;;;;;;;15.08;53.94;97553.19;4972690;28;20039;-63
2021/10/11 09:27:00;;;;;;;18.02;11.43;;;;;;;14.77;54.52;97546.09;4985695;28;20042;-62
2021/10/11 09:29:31;;;;;;;18.33;10.25;;;;;;;14.05;55.45;97543.06;4983742;28;20137;-62
2021/10/11 09:32:05;;;;;;;16.98;9.63;;;;;;;13.72;57.72;97541.72;4989809;28;20042;-61
2021/10/11 09:34:35;;;;;;;21.05;10.75;;;;;;;12.95;59.89;97545.34;4988740;28;20045;-62
2021/10/11 09:37:01;;;;;;;19.10;11.57;;;;;;;13.28;59.39;97550.31;4996880;28;20080;-62
2021/10/11 09:39:28;;;;;;;23.55;12.60;;;;;;;12.32;61.67;97551.84;4987364;28;20050;-61
2021/10/11 09:41:55;;;;;;;24.48;12.50;;;;;;;12.74;62.51;97543.72;4989374;28;20518;-61
2021/10/11 09:44:21;;;;;;;24.40;12.52;;;;;;;12.33;63.50;97548.69;4982944;28;20042;-61
2021/10/11 09:46:48;;;;;;;21.95;11.93;;;;;;;12.46;63.40;97549.41;4990159;28;20041;-64
2021/10/11 09:49:14;;;;;;;22.30;11.95;;;;;;;12.33;63.56;97548.69;4981608;28;20045;-63
2021/10/11 09:51:41;;;;;;;20.70;11.65;;;;;;;12.57;63.85;97535.91;4991191;28;20038;-63
2021/10/11 09:54:08;;;;;;;27.05;11.88;;;;;;;13.02;62.12;97534.50;4982797;28;20077;-63
2021/10/11 09:56:33;;;;;;;18.00;11.48;;;;;;;13.09;59.96;97537.38;4989264;28;20449;-62
2021/10/11 09:59:00;;;;;;;20.08;11.48;;;;;;;13.32;59.55;97539.41;4972048;28;20042;-63
2021/10/11 10:01:28;;;;;;;22.10;12.02;;;;;;;13.46;59.17;97531.41;4993692;28;20499;-61
2021/10/11 10:03:55;;;;;;;23.58;12.50;;;;;;;11.80;64.65;97534.47;5005910;28;20068;-61
2021/10/11 10:06:28;;;;;;;21.58;11.50;;;;;;;12.09;64.60;97532.47;4986426;28;20049;-61
2021/10/11 10:08:57;;;;;;;21.85;12.43;;;;;;;12.37;63.51;97527.63;4999603;28;20046;-60
2021/10/11 10:11:28;;;;;;;23.88;12.32;;;;;;;12.81;62.21;97523.84;4985229;28;20568;-62
2021/10/11 10:13:54;;;;;;;23.10;11.55;;;;;;;13.86;59.39;97521.88;4969058;28;20042;-62
2021/10/11 10:16:19;;;;;;;21.17;12.07;;;;;;;14.83;55.20;97522.53;4985340;28;20157;-59
2021/10/11 10:18:46;;;;;;;28.83;11.73;;;;;;;14.61;55.06;97518.72;4987984;28;20046;-61
2021/10/11 10:21:13;;;;;;;21.77;12.20;;;;;;;14.47;55.81;97517.28;4974229;28;20042;-64
2021/10/11 10:23:43;;;;;;;19.65;11.48;;;;;;;12.61;60.86;97515.56;4986442;28;20034;-62
2021/10/11 10:26:12;;;;;;;18.42;10.32;;;;;;;14.75;56.80;97516.13;4988523;28;20582;-62
2021/10/11 10:28:49;;;;;;;15.52;9.98;;;;;;;13.85;57.63;97517.56;4994831;28;20454;-61
2021/10/11 10:31:35;;;;;;;17.23;10.32;;;;;;;12.14;61.38;97515.72;4982830;28;20153;-61
2021/10/11 10:34:01;;;;;;;21.75;10.80;;;;;;;10.85;67.72;97522.19;4985867;28;20109;-63
2021/10/11 10:36:29;;;;;;;19.13;11.20;;;;;;;12.00;65.81;97516.94;4986479;28;20133;-61
2021/10/11 10:39:05;;;;;;;19.38;11.60;;;;;;;13.55;59.91;97506.41;4990826;28;20571;-64
2021/10/11 10:41:31;;;;;;;20.85;11.23;;;;;;;13.27;59.07;97503.91;4983717;28;20054;-62
2021/10/11 10:44:08;;;;;;;20.27;11.32;;;;;;;13.73;58.47;97501.22;4994783;28;20038;-64
2021/10/11 10:46:33;;;;;;;21.88;10.13;;;;;;;13.96;57.29;97503.97;4974842;28;20518;-63
2021/10/11 10:48:58;;;;;;;17.38;10.63;;;;;;;14.50;56.33;97493.72;4989294;28;20034;-59
2021/10/11 10:51:24;;;;;;;18.23;10.65;;;;;;;13.10;60.63;97486.69;4985791;28;20916;-62
2021/10/11 10:53:54;;;;;;;20.02;11.13;;;;;;;13.95;57.14;97489.41;4990381;28;20078;-60
2021/10/11 10:56:21;;;;;;;26.15;13.15;;;;;;;13.56;59.89;97486.78;4983229;28;20053;-61
2021/10/11 10:58:49;;;;;;;23.23;12.45;;;;;;;13.64;60.48;97481.41;4994240;28;20065;-61
2021/10/11 11:01:23;;;;;;;23.85;12.85;;;;;;;13.33;60.70;97489.53;4983949;28;20081;-61
2021/10/11 11:03:49;;;;;;;23.20;13.02;;;;;;;13.20;62.93;97477.88;4989532;28;20129;-63
2021/10/11 11:06:14;;;;;;;25.80;13.52;;;;;;;13.01;63.57;97492.44;4978990;28;20124;-63
2021/10/11 11:08:39;;;;;;;27.23;13.25;;;;;;;13.14;63.72;97489.53;4991216;28;20479;-62
2021/10/11 11:11:06;;;;;;;26.48;13.98;;;;;;;12.82;64.58;97486.97;4987056;28;20038;-63
2021/10/11 11:13:31;;;;;;;26.08;12.88;;;;;;;13.09;64.10;97482.38;4998308;28;20045;-60